createdAt,value
2018-07-02T00:00:30.408Z,94883.05
2018-07-02T00:02:59.656Z,94887.77
2018-07-02T00:05:46.145Z,94880.62
2018-07-02T00:08:15.553Z,94880.38
2018-07-02T00:10:44.820Z,94880.20
2018-07-02T00:13:14.240Z,94879.11
2018-07-02T00:28:09.862Z,94872.42
2018-07-02T00:30:39.148Z,94866.85
2018-07-02T00:33:08.416Z,94879.08
2018-07-02T00:35:37.731Z,94877.48
2018-07-02T00:38:06.983Z,94874.88
2018-07-02T00:40:36.258Z,94868.68
2018-07-02T00:43:05.893Z,94870.30
2018-07-02T00:45:35.174Z,94868.08
2018-07-02T00:48:04.432Z,94870.23
2018-07-02T00:50:33.728Z,94871.53
2018-07-02T00:53:03.033Z,94864.48
2018-07-02T00:55:32.336Z,94866.14
2018-07-02T00:58:01.593Z,94865.17
2018-07-02T01:00:32.059Z,94862.61
2018-07-02T01:03:01.334Z,94861.38
2018-07-02T01:05:30.587Z,94862.73
2018-07-02T01:07:59.938Z,94863.45
2018-07-02T01:10:29.204Z,94859.34
2018-07-02T01:12:58.546Z,94859.18
2018-07-02T01:15:27.856Z,94857.55
2018-07-02T01:17:56.930Z,94856.91
2018-07-02T01:20:26.191Z,94853.66
2018-07-02T01:22:55.486Z,94853.88
2018-07-02T01:25:24.995Z,94853.39
2018-07-02T01:27:54.267Z,94857.66
2018-07-02T01:30:23.540Z,94854.86
2018-07-02T01:32:52.799Z,94847.03
2018-07-02T01:35:22.079Z,94850.14
2018-07-02T01:37:51.310Z,94857.97
2018-07-02T01:40:20.574Z,94849.31
2018-07-02T01:42:49.813Z,94850.30
2018-07-02T01:45:19.117Z,94846.88
2018-07-02T01:47:48.378Z,94851.48
2018-07-02T01:50:17.817Z,94847.86
2018-07-02T01:52:47.054Z,94849.20
2018-07-02T01:55:16.310Z,94841.83
2018-07-02T01:57:45.595Z,94846.12
2018-07-02T02:00:14.857Z,94838.59
2018-07-02T02:02:44.114Z,94843.70
2018-07-02T02:05:13.389Z,94845.84
2018-07-02T02:07:42.625Z,94853.06
2018-07-02T02:10:11.962Z,94854.19
2018-07-02T02:12:41.234Z,94855.02
2018-07-02T02:15:10.811Z,94849.59
2018-07-02T02:17:40.078Z,94844.67
2018-07-02T02:20:09.478Z,94852.19
2018-07-02T02:22:38.763Z,94848.93
2018-07-02T02:25:07.796Z,94849.72
2018-07-02T02:27:37.218Z,94853.80
2018-07-02T02:30:06.942Z,94860.31
2018-07-02T02:32:36.262Z,94857.03
2018-07-02T02:35:06.409Z,94853.11
2018-07-02T02:37:35.719Z,94850.02
2018-07-02T02:40:05.568Z,94846.77
2018-07-02T02:42:34.902Z,94850.51
2018-07-02T02:45:04.627Z,94852.59
2018-07-02T02:47:33.974Z,94850.16
2018-07-02T02:50:03.354Z,94852.78
2018-07-02T02:52:32.657Z,94850.18
2018-07-02T02:55:01.937Z,94846.22
2018-07-02T02:57:31.190Z,94842.95
2018-07-02T03:00:00.470Z,94850.14
2018-07-02T03:02:29.747Z,94847.04
2018-07-02T03:04:59.002Z,94854.22
2018-07-02T03:07:28.272Z,94855.52
2018-07-02T03:09:57.560Z,94858.75
2018-07-02T03:12:26.811Z,94852.23
2018-07-02T03:14:56.121Z,94857.63
2018-07-02T03:17:25.762Z,94853.53
2018-07-02T03:19:55.037Z,94851.38
2018-07-02T03:22:24.332Z,94851.53
2018-07-02T03:24:53.614Z,94845.34
2018-07-02T03:27:22.636Z,94847.48
2018-07-02T03:29:51.950Z,94851.97
2018-07-02T03:32:21.188Z,94848.31
2018-07-02T03:34:50.513Z,94842.77
2018-07-02T03:37:19.789Z,94842.63
2018-07-02T03:39:49.055Z,94841.64
2018-07-02T03:42:18.343Z,94833.52
2018-07-02T03:44:47.614Z,94837.36
2018-07-02T03:47:16.943Z,94841.95
2018-07-02T03:49:46.250Z,94833.14
2018-07-02T03:52:15.596Z,94835.45
2018-07-02T03:54:44.858Z,94832.52
2018-07-02T03:57:14.092Z,94836.92
2018-07-02T03:59:43.475Z,94832.86
2018-07-02T04:02:12.766Z,94834.34
2018-07-02T04:04:42.040Z,94840.73
2018-07-02T04:07:11.359Z,94839.60
2018-07-02T04:09:40.638Z,94839.94
2018-07-02T04:12:10.135Z,94842.91
2018-07-02T04:14:39.491Z,94840.12
2018-07-02T04:17:08.791Z,94849.28
2018-07-02T04:19:38.088Z,94835.22
2018-07-02T04:22:07.401Z,94837.14
2018-07-02T04:24:36.942Z,94847.95
2018-07-02T04:27:06.795Z,94840.08
2018-07-02T04:29:36.079Z,94842.98
2018-07-02T04:32:05.488Z,94844.33
2018-07-02T04:34:34.844Z,94847.06
2018-07-02T04:37:04.410Z,94843.44
2018-07-02T04:39:33.777Z,94844.91
2018-07-02T04:42:03.185Z,94845.83
2018-07-02T04:44:32.546Z,94847.44
2018-07-02T04:47:01.978Z,94844.62
2018-07-02T04:49:32.003Z,94836.41
2018-07-02T04:52:01.352Z,94846.30
2018-07-02T04:54:30.771Z,94844.75
2018-07-02T04:57:00.218Z,94840.66
2018-07-02T04:59:29.617Z,94849.83
2018-07-02T05:01:59.010Z,94834.81
2018-07-02T05:04:28.494Z,94834.69
2018-07-02T05:06:57.983Z,94830.52
2018-07-02T05:09:27.578Z,94829.20
2018-07-02T05:11:56.919Z,94830.23
2018-07-02T05:14:26.243Z,94826.69
2018-07-02T05:16:55.735Z,94831.47
2018-07-02T05:19:25.136Z,94829.44
2018-07-02T05:21:55.128Z,94829.64
2018-07-02T05:24:24.427Z,94836.66
2018-07-02T05:26:53.970Z,94835.91
2018-07-02T05:29:23.295Z,94829.60
2018-07-02T05:31:52.666Z,94820.82
2018-07-02T05:34:21.963Z,94824.07
2018-07-02T05:36:51.489Z,94830.18
2018-07-02T05:39:20.842Z,94830.09
2018-07-02T05:41:50.206Z,94830.28
2018-07-02T05:44:19.564Z,94827.73
2018-07-02T05:46:48.968Z,94832.13
2018-07-02T05:49:18.251Z,94828.77
2018-07-02T05:51:47.568Z,94820.24
2018-07-02T05:54:16.911Z,94819.49
2018-07-02T05:56:46.735Z,94826.08
2018-07-02T05:59:16.107Z,94822.03
2018-07-02T06:01:45.439Z,94821.28
2018-07-02T06:04:14.772Z,94817.17
2018-07-02T06:06:44.134Z,94822.77
2018-07-02T06:09:13.982Z,94820.30
2018-07-02T06:11:43.291Z,94825.78
2018-07-02T06:14:12.607Z,94823.55
2018-07-02T06:16:41.947Z,94815.32
2018-07-02T06:19:11.276Z,94821.15
2018-07-02T06:21:40.635Z,94816.68
2018-07-02T06:24:09.963Z,94816.13
2018-07-02T06:26:39.379Z,94815.14
2018-07-02T06:29:08.742Z,94814.82
2018-07-02T06:31:38.545Z,94818.09
2018-07-02T06:34:07.910Z,94812.69
2018-07-02T06:36:37.269Z,94820.52
2018-07-02T06:39:10.242Z,94822.61
2018-07-02T06:41:39.739Z,94820.16
2018-07-02T06:44:09.206Z,94826.03
2018-07-02T06:46:38.509Z,94824.10
2018-07-02T06:49:07.960Z,94821.04
2018-07-02T06:51:38.004Z,94826.63
2018-07-02T06:54:07.384Z,94824.48
2018-07-02T06:56:36.795Z,94831.27
2018-07-02T06:59:06.224Z,94825.28
2018-07-02T07:01:35.538Z,94830.95
2018-07-02T07:04:04.915Z,94828.41
2018-07-02T07:06:34.328Z,94835.41
2018-07-02T07:09:03.836Z,94838.69
2018-07-02T07:11:33.155Z,94842.80
2018-07-02T07:14:02.562Z,94831.27
2018-07-02T07:16:31.868Z,94836.09
2018-07-02T07:19:01.331Z,94839.48
2018-07-02T07:21:30.719Z,94843.09
2018-07-02T07:24:00.317Z,94842.20
2018-07-02T07:26:29.608Z,94837.72
2018-07-02T07:28:58.935Z,94835.47
2018-07-02T07:31:28.284Z,94845.33
2018-07-02T07:33:57.643Z,94840.00
2018-07-02T07:36:26.993Z,94841.37
2018-07-02T07:38:56.333Z,94839.40
2018-07-02T07:41:25.689Z,94838.16
2018-07-02T07:43:55.042Z,94834.70
2018-07-02T07:46:24.624Z,94833.53
2018-07-02T07:48:53.946Z,94825.75
2018-07-02T07:51:23.297Z,94830.61
2018-07-02T07:53:52.899Z,94836.72
2018-07-02T07:56:22.331Z,94834.18
2018-07-02T07:58:51.728Z,94841.59
2018-07-02T08:01:21.223Z,94841.88
2018-07-02T08:03:50.639Z,94839.34
2018-07-02T08:06:20.096Z,94844.57
2018-07-02T08:08:49.416Z,94841.09
2018-07-02T08:11:18.788Z,94837.02
2018-07-02T08:13:48.112Z,94839.59
2018-07-02T08:16:17.450Z,94828.86
2018-07-02T08:18:46.906Z,94836.28
2018-07-02T08:21:16.262Z,94842.64
2018-07-02T08:23:45.614Z,94836.25
2018-07-02T08:26:15.783Z,94834.36
2018-07-02T08:28:45.180Z,94837.39
2018-07-02T08:31:14.483Z,94841.25
2018-07-02T08:33:43.858Z,94832.45
2018-07-02T08:36:13.361Z,94834.72
2018-07-02T08:38:44.020Z,94828.77
2018-07-02T08:41:13.420Z,94827.80
2018-07-02T08:43:42.736Z,94832.08
2018-07-02T08:46:12.256Z,94828.41
2018-07-02T08:48:41.597Z,94825.87
2018-07-02T08:51:11.029Z,94815.73
2018-07-02T08:53:40.423Z,94816.78
2018-07-02T08:56:09.781Z,94818.45
2018-07-02T08:58:39.084Z,94819.88
2018-07-02T09:01:08.462Z,94824.74
2018-07-02T09:03:37.810Z,94823.73
2018-07-02T09:06:07.251Z,94820.75
2018-07-02T09:08:36.618Z,94819.58
2018-07-02T09:11:06.083Z,94823.34
2018-07-02T09:13:36.075Z,94830.20
2018-07-02T09:16:05.678Z,94828.98
2018-07-02T09:18:35.202Z,94832.02
2018-07-02T09:21:04.322Z,94819.70
2018-07-02T09:23:33.646Z,94819.01
2018-07-02T09:26:03.355Z,94827.38
2018-07-02T09:28:32.598Z,94823.49
2018-07-02T09:31:01.985Z,94824.45
2018-07-02T09:33:31.243Z,94822.45
2018-07-02T09:36:00.597Z,94820.11
2018-07-02T09:38:29.885Z,94820.78
2018-07-02T09:40:59.297Z,94818.16
2018-07-02T09:43:28.578Z,94823.23
2018-07-02T09:45:57.918Z,94814.18
2018-07-02T09:48:27.395Z,94807.86
2018-07-02T09:50:56.827Z,94814.44
2018-07-02T09:53:26.495Z,94814.73
2018-07-02T09:55:56.024Z,94820.93
2018-07-02T09:58:25.498Z,94832.45
2018-07-02T10:00:55.039Z,94820.55
2018-07-02T10:03:24.737Z,94811.98
2018-07-02T10:05:54.368Z,94809.83
2018-07-02T10:08:23.869Z,94813.70
2018-07-02T10:10:53.609Z,94808.19
2018-07-02T10:13:23.165Z,94818.13
2018-07-02T10:15:52.431Z,94817.09
2018-07-02T10:18:22.257Z,94807.77
2018-07-02T10:20:51.799Z,94804.52
2018-07-02T10:23:21.726Z,94811.75
2018-07-02T10:25:51.293Z,94811.95
2018-07-02T10:28:20.741Z,94811.58
2018-07-02T10:30:50.403Z,94811.23
2018-07-02T10:33:20.000Z,94812.53
2018-07-02T10:35:49.648Z,94810.41
2018-07-02T10:38:19.283Z,94809.40
2018-07-02T10:40:48.722Z,94805.72
2018-07-02T10:43:18.358Z,94808.03
2018-07-02T10:45:48.025Z,94813.67
2018-07-02T10:48:17.733Z,94812.75
2018-07-02T10:50:47.274Z,94810.24
2018-07-02T10:53:16.756Z,94816.02
2018-07-02T10:55:46.362Z,94806.67
2018-07-02T10:58:15.840Z,94807.04
2018-07-02T11:00:45.740Z,94804.73
2018-07-02T11:03:15.390Z,94811.31
2018-07-02T11:05:44.981Z,94810.37
2018-07-02T11:08:15.455Z,94806.23
2018-07-02T11:10:44.883Z,94795.44
2018-07-02T11:13:14.824Z,94796.37
2018-07-02T11:15:44.546Z,94802.27
2018-07-02T11:18:14.177Z,94807.59
2018-07-02T11:20:43.650Z,94803.29
2018-07-02T11:23:13.141Z,94801.85
2018-07-02T11:25:42.599Z,94804.00
2018-07-02T11:28:12.055Z,94799.40
2018-07-02T11:30:41.735Z,94806.59
2018-07-02T11:33:11.365Z,94797.02
2018-07-02T11:35:40.903Z,94805.18
2018-07-02T11:38:10.457Z,94806.42
2018-07-02T11:40:40.076Z,94801.74
2018-07-02T11:43:09.536Z,94797.66
2018-07-02T12:05:10.209Z,94806.06
2018-07-02T12:10:16.998Z,94792.48
2018-07-02T12:12:46.713Z,94784.00
2018-07-02T12:15:16.204Z,94791.58
2018-07-02T12:17:45.601Z,94797.93
2018-07-02T12:20:16.418Z,94798.56
2018-07-02T12:22:45.857Z,94794.16
2018-07-02T12:25:15.337Z,94797.59
2018-07-02T12:27:44.759Z,94802.00
2018-07-02T12:30:14.151Z,94797.86
2018-07-02T12:32:43.726Z,94796.22
2018-07-02T12:35:13.092Z,94790.48
2018-07-02T12:37:42.713Z,94784.52
2018-07-02T12:40:12.172Z,94789.81
2018-07-02T12:42:41.694Z,94791.59
2018-07-02T12:45:12.161Z,94792.41
2018-07-02T12:47:41.715Z,94790.42
2018-07-02T12:50:11.451Z,94786.03
2018-07-02T12:52:40.958Z,94790.97
2018-07-02T12:55:10.550Z,94792.78
2018-07-02T12:57:41.247Z,94796.27
2018-07-02T13:00:10.738Z,94796.52
2018-07-02T13:02:40.140Z,94805.22
2018-07-02T13:05:09.637Z,94799.37
2018-07-02T13:07:39.201Z,94799.09
2018-07-02T13:30:44.197Z,94807.56
2018-07-02T13:33:14.284Z,94803.77
2018-07-02T13:35:43.701Z,94798.27
2018-07-02T13:38:13.108Z,94801.36
2018-07-02T13:40:42.546Z,94806.80
2018-07-02T13:43:12.232Z,94812.45
2018-07-02T13:45:41.686Z,94804.80
2018-07-02T13:48:11.533Z,94801.27
2018-07-02T13:50:41.096Z,94810.07
2018-07-02T13:53:10.827Z,94804.69
2018-07-02T13:55:40.408Z,94799.91
2018-07-02T13:58:09.986Z,94810.99
2018-07-02T14:00:39.496Z,94805.66
2018-07-02T14:03:09.024Z,94811.29
2018-07-02T14:05:38.415Z,94804.03
2018-07-02T14:08:07.791Z,94802.03
2018-07-02T14:10:37.176Z,94806.31
2018-07-02T14:13:06.610Z,94805.63
2018-07-02T14:15:36.188Z,94798.47
2018-07-02T14:18:05.900Z,94803.05
2018-07-02T14:20:35.574Z,94800.91
2018-07-02T14:23:05.176Z,94805.97
2018-07-02T14:25:34.705Z,94797.09
2018-07-02T14:28:04.212Z,94794.17
2018-07-02T14:30:33.927Z,94806.66
2018-07-02T14:33:03.623Z,94798.67
2018-07-02T14:35:33.072Z,94793.48
2018-07-02T14:38:02.606Z,94796.97
2018-07-02T14:40:32.089Z,94792.27
2018-07-02T14:43:01.597Z,94796.84
2018-07-02T14:45:31.160Z,94794.16
2018-07-02T14:48:00.588Z,94790.39
2018-07-02T14:50:30.090Z,94792.55
2018-07-02T14:52:59.607Z,94789.58
2018-07-02T14:55:29.157Z,94790.65
2018-07-02T14:57:58.767Z,94791.75
2018-07-02T15:00:28.656Z,94783.38
2018-07-02T15:02:58.290Z,94783.93
2018-07-02T15:05:27.809Z,94782.63
2018-07-02T15:07:57.325Z,94781.24
2018-07-02T15:10:26.920Z,94786.08
2018-07-02T15:12:56.642Z,94785.56
2018-07-02T15:15:26.120Z,94785.05
2018-07-02T15:17:55.719Z,94783.14
2018-07-02T15:20:25.189Z,94781.48
2018-07-02T15:22:54.892Z,94779.91
2018-07-02T15:25:24.409Z,94785.48
2018-07-02T15:27:53.967Z,94784.91
2018-07-02T15:30:23.555Z,94784.45
2018-07-02T15:32:53.143Z,94790.66
2018-07-02T15:35:22.759Z,94785.84
2018-07-02T15:37:52.517Z,94786.91
2018-07-02T15:40:22.116Z,94785.96
2018-07-02T15:42:51.650Z,94794.30
2018-07-02T15:45:21.139Z,94784.17
2018-07-02T15:47:50.827Z,94793.57
2018-07-02T15:50:20.679Z,94793.37
2018-07-02T15:52:50.132Z,94786.89
2018-07-02T15:55:19.760Z,94790.66
2018-07-02T15:57:49.346Z,94788.25
2018-07-02T16:00:18.699Z,94787.39
2018-07-02T16:02:48.353Z,94791.95
2018-07-02T16:05:17.784Z,94785.82
2018-07-02T16:07:47.311Z,94780.47
2018-07-02T16:10:16.716Z,94783.41
2018-07-02T16:12:46.147Z,94784.21
2018-07-02T16:15:15.736Z,94781.53
2018-07-02T16:17:46.023Z,94788.78
2018-07-02T16:20:15.567Z,94793.29
2018-07-02T16:22:45.049Z,94792.92
2018-07-02T16:25:14.580Z,94789.80
2018-07-02T16:27:44.838Z,94794.06
2018-07-02T16:30:14.287Z,94798.41
2018-07-02T16:32:43.732Z,94792.48
2018-07-02T16:35:13.192Z,94787.95
2018-07-02T16:37:42.653Z,94788.71
2018-07-02T17:09:29.629Z,94794.95
2018-07-02T17:14:35.346Z,94795.57
2018-07-02T17:17:05.141Z,94798.23
2018-07-02T17:19:34.696Z,94800.91
2018-07-02T17:22:04.269Z,94794.91
2018-07-02T17:28:15.100Z,94802.09
2018-07-02T17:30:44.575Z,94799.66
2018-07-02T17:33:13.996Z,94800.33
2018-07-02T17:35:44.140Z,94808.80
2018-07-02T17:38:13.621Z,94813.59
2018-07-02T17:40:43.854Z,94813.80
2018-07-02T17:43:13.764Z,94812.17
2018-07-02T17:45:44.361Z,94817.67
2018-07-02T17:48:14.165Z,94820.63
2018-07-02T17:50:43.827Z,94824.88
2018-07-02T17:53:13.803Z,94824.94
2018-07-02T17:55:43.636Z,94823.17
2018-07-02T17:58:13.256Z,94831.22
2018-07-02T18:00:43.645Z,94825.20
2018-07-02T18:03:13.089Z,94825.86
2018-07-02T18:05:42.505Z,94831.14
2018-07-02T18:08:11.930Z,94825.37
2018-07-02T18:10:41.405Z,94831.05
2018-07-02T18:13:12.249Z,94828.12
2018-07-02T18:15:41.608Z,94825.19
2018-07-02T18:18:11.168Z,94826.16
2018-07-02T18:20:40.605Z,94834.00
2018-07-02T18:23:10.035Z,94837.23
2018-07-02T18:25:40.503Z,94838.80
2018-07-02T18:28:10.130Z,94838.23
2018-07-02T18:30:39.695Z,94837.48
2018-07-02T18:33:09.113Z,94843.56
2018-07-02T18:35:38.776Z,94846.47
2018-07-02T18:38:08.586Z,94837.65
2018-07-02T18:40:38.204Z,94839.80
2018-07-02T18:43:07.598Z,94839.03
2018-07-02T18:45:36.975Z,94835.34
2018-07-02T18:48:06.315Z,94840.23
2018-07-02T18:50:36.011Z,94841.20
2018-07-02T18:53:05.338Z,94839.77
2018-07-02T18:55:34.771Z,94844.22
2018-07-02T18:58:04.055Z,94844.13
2018-07-02T19:00:33.359Z,94849.77
2018-07-02T19:03:02.646Z,94853.73
2018-07-02T19:05:31.970Z,94865.40
2018-07-02T19:08:01.234Z,94869.83
2018-07-02T19:10:30.673Z,94873.16
2018-07-02T19:12:59.970Z,94870.87
2018-07-02T19:15:29.396Z,94875.70
2018-07-02T19:17:58.709Z,94879.45
2018-07-02T19:20:28.093Z,94878.84
2018-07-02T19:22:57.368Z,94880.23
2018-07-02T19:25:26.663Z,94886.87
2018-07-02T19:27:56.450Z,94895.81
2018-07-02T19:30:26.775Z,94899.50
2018-07-02T19:32:56.731Z,94897.89
2018-07-02T19:35:26.119Z,94897.95
2018-07-02T19:37:55.374Z,94899.42
2018-07-02T19:40:24.870Z,94896.98
2018-07-02T19:42:54.326Z,94898.44
2018-07-02T19:45:23.682Z,94905.45
2018-07-02T19:47:53.150Z,94905.56
2018-07-02T19:50:22.509Z,94913.02
2018-07-02T19:52:51.908Z,94909.72
2018-07-02T19:55:21.186Z,94919.76
2018-07-02T19:57:50.520Z,94920.62
2018-07-02T20:00:21.143Z,94920.05
2018-07-02T20:02:50.283Z,94924.48
2018-07-02T20:05:19.569Z,94922.59
2018-07-02T20:07:49.169Z,94920.59
2018-07-02T20:10:18.617Z,94923.84
2018-07-02T20:12:47.962Z,94922.26
2018-07-02T20:15:17.950Z,94929.94
2018-07-02T20:17:47.493Z,94930.45
2018-07-02T20:20:16.905Z,94936.02
2018-07-02T20:22:46.264Z,94935.44
2018-07-02T20:25:15.714Z,94935.67
2018-07-02T20:27:45.281Z,94944.66
2018-07-02T20:30:14.808Z,94943.23
2018-07-02T20:32:44.204Z,94943.92
2018-07-02T20:35:13.710Z,94945.66
2018-07-02T20:37:43.068Z,94948.30
2018-07-02T20:40:12.527Z,94946.27
2018-07-02T20:42:42.016Z,94954.42
2018-07-02T20:45:11.442Z,94945.55
2018-07-02T20:47:41.069Z,94952.06
2018-07-02T20:50:10.436Z,94952.55
2018-07-02T21:22:05.086Z,94964.58
2018-07-02T21:27:10.773Z,94974.68
2018-07-02T21:29:40.104Z,94975.66
2018-07-02T21:32:09.478Z,94970.67
2018-07-02T21:34:38.802Z,94973.89
2018-07-02T21:37:08.238Z,94978.25
2018-07-02T21:39:37.525Z,94977.90
2018-07-02T21:42:07.001Z,94978.65
2018-07-02T21:44:36.358Z,94979.16
2018-07-02T21:47:05.829Z,94979.94
2018-07-02T21:49:35.208Z,94981.14
2018-07-02T21:52:04.558Z,94986.38
2018-07-02T21:54:33.955Z,94984.41
2018-07-02T21:57:03.266Z,94981.52
2018-07-02T21:59:32.617Z,94977.61
2018-07-02T22:02:01.940Z,94973.92
2018-07-02T22:04:31.236Z,94974.21
2018-07-02T22:07:00.567Z,94976.72
2018-07-02T22:09:30.974Z,94976.23
2018-07-02T22:12:00.311Z,94977.59
2018-07-02T22:14:29.693Z,94972.89
2018-07-02T22:16:59.334Z,94970.06
2018-07-02T22:19:28.664Z,94969.42
2018-07-02T22:21:57.953Z,94983.26
2018-07-02T22:24:27.285Z,94976.50
2018-07-02T22:26:56.618Z,94972.97
2018-07-02T22:29:25.973Z,94976.19
2018-07-02T22:31:55.313Z,94978.47
2018-07-02T22:34:24.675Z,94974.75
2018-07-02T22:36:53.984Z,94973.61
2018-07-02T22:39:23.352Z,94979.13
2018-07-02T22:41:52.783Z,94980.31
2018-07-02T22:44:21.932Z,94975.94
2018-07-02T22:46:51.316Z,94977.87
2018-07-02T22:49:21.830Z,94970.06
2018-07-02T22:51:51.234Z,94969.39
2018-07-02T22:54:20.551Z,94977.67
2018-07-02T22:56:49.898Z,94972.25
2018-07-02T22:59:19.769Z,94974.91
2018-07-02T23:01:49.055Z,94974.29
2018-07-02T23:04:18.490Z,94978.73
2018-07-02T23:06:47.806Z,94977.30
2018-07-02T23:09:17.156Z,94977.04
2018-07-02T23:11:46.557Z,94978.84
2018-07-02T23:14:15.918Z,94978.89
2018-07-02T23:16:45.279Z,94981.72
2018-07-02T23:19:14.592Z,94977.91
2018-07-02T23:21:43.909Z,94978.70
2018-07-02T23:24:13.696Z,94972.44
2018-07-02T23:26:43.063Z,94982.43
2018-07-02T23:29:12.373Z,94978.89
2018-07-02T23:31:41.687Z,94972.98
2018-07-02T23:34:11.067Z,94973.28
2018-07-02T23:36:40.413Z,94970.80
2018-07-02T23:39:12.151Z,94966.35
2018-07-02T23:41:41.761Z,94962.98
2018-07-02T23:44:11.095Z,94966.64
2018-07-02T23:46:40.379Z,94961.88
2018-07-02T23:49:09.675Z,94962.77
2018-07-02T23:51:39.101Z,94960.27
2018-07-02T23:54:08.414Z,94961.69
2018-07-02T23:56:37.751Z,94959.09
2018-07-02T23:59:07.227Z,94961.20
